createdAt,value
2023-07-01T00:00:57.348Z,99017.53
2023-07-01T00:03:59.545Z,99014.75
2023-07-01T00:07:01.687Z,99010.47
2023-07-01T00:10:03.827Z,98999.62
2023-07-01T00:13:05.789Z,98997.47
2023-07-01T00:16:07.861Z,99004.00
2023-07-01T00:19:09.912Z,98995.72
2023-07-01T00:22:11.928Z,98996.59
2023-07-01T00:25:14.038Z,99001.34
2023-07-01T00:28:16.051Z,98993.50
2023-07-01T00:31:18.140Z,98989.66
2023-07-01T00:34:20.252Z,98985.81
2023-07-01T00:37:22.312Z,98988.16
2023-07-01T00:40:24.338Z,98996.88
2023-07-01T00:43:26.383Z,98995.53
2023-07-01T00:46:28.434Z,98993.59
2023-07-01T00:49:31.074Z,98990.81
2023-07-01T00:52:33.224Z,98985.28
2023-07-01T00:55:35.224Z,98986.28
2023-07-01T00:58:37.328Z,98975.28
2023-07-01T01:01:43.382Z,98987.31
2023-07-01T01:05:02.739Z,98985.31
2023-07-01T01:08:21.911Z,98986.63
2023-07-01T01:11:26.813Z,98984.28
2023-07-01T01:14:29.599Z,98988.81
2023-07-01T01:17:36.993Z,98986.75
2023-07-01T01:20:40.696Z,98981.59
2023-07-01T01:23:53.356Z,98985.94
2023-07-01T01:27:00.540Z,98997.00
2023-07-01T01:30:02.472Z,98997.34
2023-07-01T01:33:05.241Z,98999.19
2023-07-01T01:36:16.434Z,98992.88
2023-07-01T01:39:23.056Z,98998.03
2023-07-01T01:42:31.706Z,99001.38
2023-07-01T01:45:34.650Z,98999.38
2023-07-01T01:48:38.833Z,98995.19
2023-07-01T01:51:42.283Z,99000.38
2023-07-01T01:54:47.041Z,99004.94
2023-07-01T01:57:50.587Z,99002.41
2023-07-01T02:00:52.753Z,99008.13
2023-07-01T02:03:54.983Z,99003.59
2023-07-01T02:06:57.244Z,99003.44
2023-07-01T02:09:59.402Z,99000.22
2023-07-01T02:13:02.267Z,98994.37
2023-07-01T02:16:04.604Z,98989.66
2023-07-01T02:19:06.640Z,98996.38
2023-07-01T02:22:08.674Z,98997.56
2023-07-01T02:25:11.603Z,98994.72
2023-07-01T02:28:14.860Z,99009.75
2023-07-01T02:31:19.435Z,99008.44
2023-07-01T02:34:28.889Z,99002.47
2023-07-01T02:37:30.924Z,99012.84
2023-07-01T02:40:32.878Z,99016.25
2023-07-01T02:43:35.278Z,99009.69
2023-07-01T02:46:37.465Z,99010.37
2023-07-01T02:49:41.536Z,99023.41
2023-07-01T02:52:44.092Z,99016.72
2023-07-01T02:55:46.755Z,99015.03
2023-07-01T02:58:48.916Z,99015.38
2023-07-01T03:01:51.250Z,99007.16
2023-07-01T03:04:53.277Z,99005.84
2023-07-01T03:07:56.425Z,99015.88
2023-07-01T03:10:58.470Z,99009.50
2023-07-01T03:14:00.478Z,99014.50
2023-07-01T03:17:02.609Z,99019.84
2023-07-01T03:20:07.265Z,99018.69
2023-07-01T03:23:09.279Z,99020.53
2023-07-01T03:26:11.391Z,99020.19
2023-07-01T03:29:13.457Z,99017.16
2023-07-01T03:32:15.593Z,99007.47
2023-07-01T03:35:17.709Z,99007.44
2023-07-01T03:38:19.709Z,99006.75
2023-07-01T03:41:21.692Z,99009.06
2023-07-01T03:44:23.751Z,99005.38
2023-07-01T03:47:25.688Z,99009.22
2023-07-01T03:50:27.572Z,99008.03
2023-07-01T03:53:29.498Z,98992.63
2023-07-01T03:56:31.442Z,99010.16
2023-07-01T03:59:33.326Z,99006.44
2023-07-01T04:02:38.870Z,99014.31
2023-07-01T04:05:40.851Z,99008.63
2023-07-01T04:08:42.779Z,99018.50
2023-07-01T04:11:44.783Z,99010.63
2023-07-01T04:14:46.796Z,99010.47
2023-07-01T04:17:52.606Z,99005.25
2023-07-01T04:20:55.115Z,99003.56
2023-07-01T04:23:57.024Z,99002.03
2023-07-01T04:26:58.985Z,99005.03
2023-07-01T04:30:00.961Z,99002.00
2023-07-01T04:33:03.003Z,99001.47
2023-07-01T04:36:05.096Z,99001.78
2023-07-01T04:39:07.108Z,99000.75
2023-07-01T04:42:09.117Z,99004.84
2023-07-01T04:45:11.302Z,99002.53
2023-07-01T04:48:13.413Z,98997.88
2023-07-01T04:51:15.357Z,99003.91
2023-07-01T04:54:17.315Z,99007.72
2023-07-01T04:57:19.388Z,99006.50
2023-07-01T05:00:22.538Z,99015.41
2023-07-01T05:03:24.661Z,99009.03
2023-07-01T05:06:26.703Z,99016.72
2023-07-01T05:09:28.732Z,99020.53
2023-07-01T05:12:30.674Z,99023.81
2023-07-01T05:15:32.604Z,99024.59
2023-07-01T05:18:34.542Z,99028.41
2023-07-01T05:21:36.785Z,99019.53
2023-07-01T05:24:38.761Z,99032.87
2023-07-01T05:27:40.789Z,99032.06
2023-07-01T05:30:42.774Z,99034.06
2023-07-01T05:33:46.316Z,99033.00
2023-07-01T05:36:48.280Z,99035.84
2023-07-01T05:39:50.298Z,99036.75
2023-07-01T05:42:52.288Z,99039.38
2023-07-01T05:45:54.586Z,99043.06
2023-07-01T05:48:56.584Z,99042.59
2023-07-01T05:51:58.686Z,99046.28
2023-07-01T05:55:00.744Z,99043.72
2023-07-01T05:58:02.773Z,99044.91
2023-07-01T06:01:04.798Z,99042.91
2023-07-01T06:04:06.948Z,99043.84
2023-07-01T06:07:08.969Z,99035.59
2023-07-01T06:10:11.192Z,99033.37
2023-07-01T06:13:13.112Z,99037.25
2023-07-01T06:16:16.152Z,99031.78
2023-07-01T06:19:18.146Z,99051.03
2023-07-01T06:22:20.127Z,99050.41
2023-07-01T06:25:22.196Z,99053.97
2023-07-01T06:28:24.134Z,99055.13
2023-07-01T06:31:26.291Z,99059.38
2023-07-01T06:34:28.326Z,99059.75
2023-07-01T06:37:30.345Z,99069.75
2023-07-01T06:40:32.417Z,99059.75
2023-07-01T06:43:38.419Z,99068.72
2023-07-01T06:46:40.402Z,99065.78
2023-07-01T06:49:42.348Z,99071.22
2023-07-01T06:52:44.341Z,99067.75
2023-07-01T06:55:46.296Z,99073.97
2023-07-01T06:58:48.300Z,99065.31
2023-07-01T07:01:50.299Z,99070.25
2023-07-01T07:04:53.629Z,99072.63
2023-07-01T07:07:55.711Z,99067.81
2023-07-01T07:10:57.669Z,99065.66
2023-07-01T07:13:59.574Z,99065.56
2023-07-01T07:17:01.600Z,99068.53
2023-07-01T07:20:03.805Z,99065.03
2023-07-01T07:23:07.563Z,99062.13
2023-07-01T07:26:09.589Z,99061.91
2023-07-01T07:29:11.578Z,99066.00
2023-07-01T07:32:13.550Z,99056.50
2023-07-01T07:35:15.570Z,99051.47
2023-07-01T07:38:17.584Z,99055.75
2023-07-01T07:41:19.545Z,99057.03
2023-07-01T07:44:21.569Z,99061.91
2023-07-01T07:47:23.545Z,99056.87
2023-07-01T07:50:25.545Z,99064.19
2023-07-01T07:53:28.093Z,99058.56
2023-07-01T07:56:30.108Z,99057.69
2023-07-01T07:59:32.389Z,99040.72
2023-07-01T08:02:34.306Z,99051.84
2023-07-01T08:05:36.277Z,99044.44
2023-07-01T08:08:38.281Z,99044.50
2023-07-01T08:11:40.319Z,99040.87
2023-07-01T08:14:42.272Z,99034.66
2023-07-01T08:17:44.368Z,99037.62
2023-07-01T08:20:47.537Z,99038.34
2023-07-01T08:23:49.882Z,99019.38
2023-07-01T08:26:51.900Z,99022.47
2023-07-01T08:29:53.880Z,99029.16
2023-07-01T08:32:56.074Z,99029.97
2023-07-01T08:35:58.458Z,99030.75
2023-07-01T08:39:00.530Z,99035.31
2023-07-01T08:42:06.973Z,99029.41
2023-07-01T08:45:09.509Z,99022.00
2023-07-01T08:48:11.732Z,99026.81
2023-07-01T08:51:25.810Z,99024.09
2023-07-01T08:54:28.182Z,99018.66
2023-07-01T08:57:30.233Z,99020.25
2023-07-01T09:00:32.923Z,99018.22
2023-07-01T09:03:38.851Z,99008.28
2023-07-01T09:06:40.827Z,99009.97
2023-07-01T09:09:45.347Z,99017.91
2023-07-01T09:12:47.385Z,99012.25
2023-07-01T09:15:50.239Z,99008.31
2023-07-01T09:19:06.988Z,99012.53
2023-07-01T09:22:09.972Z,99020.47
2023-07-01T09:25:27.539Z,99026.47
2023-07-01T09:28:32.510Z,99027.38
2023-07-01T09:31:53.515Z,99019.22
2023-07-01T09:34:58.265Z,99023.41
2023-07-01T09:38:03.421Z,99026.50
2023-07-01T09:41:17.964Z,99032.31
2023-07-01T09:44:20.723Z,99032.87
2023-07-01T09:47:26.638Z,99031.22
2023-07-01T09:50:30.950Z,99037.97
2023-07-01T09:53:36.847Z,99026.09
2023-07-01T09:56:39.391Z,99040.75
2023-07-01T09:59:41.432Z,99037.25
2023-07-01T10:02:45.415Z,99034.06
2023-07-01T10:05:52.446Z,99034.41
2023-07-01T10:08:54.422Z,99026.66
2023-07-01T10:11:58.484Z,99030.16
2023-07-01T10:15:01.105Z,99028.59
2023-07-01T10:18:03.491Z,99033.72
2023-07-01T10:21:23.878Z,99027.41
2023-07-01T10:24:39.298Z,99019.75
2023-07-01T10:27:41.273Z,99022.81
2023-07-01T10:30:43.411Z,99029.12
2023-07-01T10:33:45.405Z,99021.03
2023-07-01T10:37:26.668Z,99022.03
2023-07-01T10:40:31.578Z,99014.22
2023-07-01T10:43:38.253Z,99007.63
2023-07-01T10:46:40.427Z,99002.94
2023-07-01T10:50:01.986Z,99000.31
2023-07-01T10:53:04.157Z,99007.56
2023-07-01T10:56:15.435Z,99009.25
2023-07-01T10:59:30.205Z,98997.63
2023-07-01T11:02:40.517Z,98995.37
2023-07-01T11:06:02.372Z,98988.09
2023-07-01T11:09:05.185Z,98986.31
2023-07-01T11:12:10.126Z,98980.94
2023-07-01T11:15:20.219Z,98977.38
2023-07-01T11:18:22.540Z,98974.47
2023-07-01T11:21:26.972Z,98970.34
2023-07-01T11:24:31.105Z,98972.37
2023-07-01T11:27:33.330Z,98961.22
2023-07-01T11:30:35.356Z,98955.03
2023-07-01T11:33:37.328Z,98952.47
2023-07-01T11:36:49.674Z,98952.16
2023-07-01T11:39:52.734Z,98954.22
2023-07-01T11:42:54.831Z,98951.28
2023-07-01T11:45:56.959Z,98948.56
2023-07-01T11:48:59.277Z,98940.63
2023-07-01T11:52:03.618Z,98939.16
2023-07-01T11:55:06.585Z,98945.34
2023-07-01T11:58:30.604Z,98941.09
2023-07-01T12:01:33.349Z,98941.06
2023-07-01T12:04:39.144Z,98931.66
2023-07-01T12:07:55.954Z,98941.56
2023-07-01T12:10:58.026Z,98937.25
2023-07-01T12:14:17.785Z,98934.78
2023-07-01T12:17:30.844Z,98921.72
2023-07-01T12:20:32.904Z,98915.38
2023-07-01T12:23:45.028Z,98930.19
2023-07-01T12:26:52.165Z,98924.09
2023-07-01T12:29:54.198Z,98916.66
2023-07-01T12:32:56.225Z,98922.59
2023-07-01T12:35:58.875Z,98923.56
2023-07-01T12:39:00.976Z,98919.06
2023-07-01T12:42:03.308Z,98907.91
2023-07-01T12:45:07.462Z,98916.34
2023-07-01T12:48:09.526Z,98915.72
2023-07-01T12:51:11.643Z,98915.38
2023-07-01T12:57:18.728Z,98911.63
2023-07-01T13:00:21.350Z,98905.09
2023-07-01T13:03:23.346Z,98905.53
2023-07-01T13:06:31.824Z,98903.63
2023-07-01T13:09:44.837Z,98907.66
2023-07-01T13:12:47.071Z,98920.91
2023-07-01T13:15:54.234Z,98916.53
2023-07-01T13:18:59.180Z,98910.47
2023-07-01T13:22:01.831Z,98903.94
2023-07-01T13:25:05.303Z,98894.66
2023-07-01T13:28:07.561Z,98907.84
2023-07-01T13:31:09.594Z,98900.12
2023-07-01T13:34:12.619Z,98895.69
2023-07-01T13:37:19.343Z,98891.06
2023-07-01T13:40:24.405Z,98893.53
2023-07-01T13:43:26.995Z,98885.47
2023-07-01T13:46:40.763Z,98878.09
2023-07-01T13:49:44.233Z,98882.91
2023-07-01T13:52:46.258Z,98886.34
2023-07-01T13:55:49.789Z,98879.97
2023-07-01T13:58:51.939Z,98891.22
2023-07-01T14:02:05.282Z,98886.91
2023-07-01T14:05:08.169Z,98881.88
2023-07-01T14:08:11.342Z,98878.56
2023-07-01T14:11:22.884Z,98871.47
2023-07-01T14:14:34.011Z,98868.56
2023-07-01T14:17:36.263Z,98862.12
2023-07-01T14:20:45.052Z,98866.53
2023-07-01T14:23:55.517Z,98860.03
2023-07-01T14:27:01.642Z,98850.53
2023-07-01T14:30:15.288Z,98850.91
2023-07-01T14:33:19.921Z,98841.94
2023-07-01T14:36:30.584Z,98840.66
2023-07-01T14:39:49.633Z,98836.25
2023-07-01T14:42:51.989Z,98839.78
2023-07-01T14:45:54.561Z,98834.47
2023-07-01T14:48:57.470Z,98828.84
2023-07-01T14:51:59.668Z,98830.56
2023-07-01T14:55:02.193Z,98837.69
2023-07-01T14:58:04.425Z,98832.22
2023-07-01T15:01:06.951Z,98833.94
2023-07-01T15:04:09.571Z,98832.09
2023-07-01T15:07:11.895Z,98833.50
2023-07-01T15:10:14.086Z,98830.88
2023-07-01T15:13:16.185Z,98833.22
2023-07-01T15:16:20.364Z,98836.66
2023-07-01T15:19:22.436Z,98831.19
2023-07-01T15:22:24.400Z,98829.63
2023-07-01T15:25:26.726Z,98836.66
2023-07-01T15:28:28.947Z,98830.66
2023-07-01T15:31:30.946Z,98833.28
2023-07-01T15:34:33.097Z,98829.13
2023-07-01T15:37:35.277Z,98823.59
2023-07-01T15:40:37.323Z,98824.47
2023-07-01T15:43:42.540Z,98813.16
2023-07-01T15:46:44.902Z,98827.69
2023-07-01T15:49:47.169Z,98829.63
2023-07-01T15:52:49.236Z,98823.53
2023-07-01T15:55:53.915Z,98821.09
2023-07-01T15:58:56.447Z,98821.66
2023-07-01T16:01:59.389Z,98820.00
2023-07-01T16:05:01.794Z,98811.59
2023-07-01T16:08:04.461Z,98811.75
2023-07-01T16:11:22.759Z,98812.91
2023-07-01T16:14:24.819Z,98805.75
2023-07-01T16:17:31.272Z,98802.91
2023-07-01T16:20:33.406Z,98797.00
2023-07-01T16:23:38.930Z,98791.09
2023-07-01T16:26:43.946Z,98774.94
2023-07-01T16:29:46.982Z,98782.84
2023-07-01T16:32:54.026Z,98788.97
2023-07-01T16:35:55.919Z,98793.22
2023-07-01T16:39:01.524Z,98797.31
2023-07-01T16:42:04.600Z,98799.06
2023-07-01T16:45:13.376Z,98812.53
2023-07-01T16:48:24.510Z,98814.38
2023-07-01T16:51:27.236Z,98809.50
2023-07-01T16:54:35.998Z,98811.31
2023-07-01T16:57:37.947Z,98808.47
2023-07-01T17:00:39.993Z,98816.28
2023-07-01T17:03:45.976Z,98824.81
2023-07-01T17:06:48.467Z,98834.34
2023-07-01T17:09:53.478Z,98833.03
2023-07-01T17:12:55.778Z,98836.84
2023-07-01T17:16:00.263Z,98841.50
2023-07-01T17:19:02.799Z,98838.31
2023-07-01T17:22:05.276Z,98843.63
2023-07-01T17:25:07.978Z,98844.91
2023-07-01T17:28:10.197Z,98847.22
2023-07-01T17:31:12.380Z,98853.88
2023-07-01T17:34:19.783Z,98861.34
2023-07-01T17:37:22.241Z,98865.84
2023-07-01T17:40:24.910Z,98882.81
2023-07-01T17:43:27.067Z,98883.22
2023-07-01T17:46:29.680Z,98887.72
2023-07-01T17:49:31.903Z,98893.41
2023-07-01T17:52:37.006Z,98912.47
2023-07-01T17:55:39.393Z,98928.41
2023-07-01T17:58:42.078Z,98936.59
2023-07-01T18:01:44.646Z,98959.03
2023-07-01T18:04:47.170Z,98957.59
2023-07-01T18:07:49.685Z,98975.09
2023-07-01T18:10:51.890Z,98973.94
2023-07-01T18:13:54.303Z,98969.41
2023-07-01T18:16:56.724Z,98961.53
2023-07-01T18:19:58.730Z,98945.03
2023-07-01T18:23:01.125Z,98943.53
2023-07-01T18:26:04.301Z,98933.72
2023-07-01T18:29:06.668Z,98928.78
2023-07-01T18:32:09.398Z,98924.44
2023-07-01T18:35:15.714Z,98928.16
2023-07-01T18:38:17.923Z,98933.63
2023-07-01T18:41:20.300Z,98920.78
2023-07-01T18:44:23.916Z,98923.84
2023-07-01T18:47:26.600Z,98921.06
2023-07-01T18:50:28.797Z,98927.28
2023-07-01T18:53:35.353Z,98935.31
2023-07-01T18:56:37.646Z,98932.19
2023-07-01T18:59:40.049Z,98930.25
2023-07-01T19:02:42.539Z,98937.84
2023-07-01T19:05:44.767Z,98935.91
2023-07-01T19:08:47.493Z,98940.50
2023-07-01T19:11:49.726Z,98944.66
2023-07-01T19:14:51.885Z,98948.91
2023-07-01T19:17:55.695Z,98957.47
2023-07-01T19:21:00.038Z,98960.31
2023-07-01T19:24:02.513Z,98960.50
2023-07-01T19:27:05.282Z,98964.87
2023-07-01T19:30:14.218Z,98963.28
2023-07-01T19:33:19.925Z,98967.81
2023-07-01T19:36:22.829Z,98981.16
2023-07-01T19:39:25.475Z,98971.47
2023-07-01T19:42:27.801Z,98988.16
2023-07-01T19:45:30.374Z,98993.03
2023-07-01T19:48:34.941Z,98988.16
2023-07-01T19:51:37.270Z,98997.22
2023-07-01T19:54:39.806Z,98994.75
2023-07-01T19:57:42.375Z,98991.91
2023-07-01T20:00:44.575Z,98989.22
2023-07-01T20:03:47.759Z,98993.09
2023-07-01T20:06:50.253Z,98996.03
2023-07-01T20:09:53.001Z,98998.81
2023-07-01T20:12:55.276Z,99004.06
2023-07-01T20:15:57.903Z,98996.84
2023-07-01T20:19:00.751Z,98996.59
2023-07-01T20:22:03.038Z,98996.69
2023-07-01T20:25:05.452Z,98990.88
2023-07-01T20:28:08.350Z,98990.50
2023-07-01T20:31:10.685Z,98982.47
2023-07-01T20:34:13.837Z,98979.94
2023-07-01T20:37:18.867Z,98981.59
2023-07-01T20:40:24.017Z,98972.09
2023-07-01T20:43:26.682Z,98980.41
2023-07-01T20:46:29.199Z,98975.25
2023-07-01T20:49:31.492Z,98968.19
2023-07-01T20:52:33.748Z,98963.47
2023-07-01T20:55:35.836Z,98965.69
2023-07-01T20:58:37.875Z,98964.41
2023-07-01T21:01:41.178Z,98964.94
2023-07-01T21:04:43.310Z,98966.47
2023-07-01T21:07:45.399Z,98968.16
2023-07-01T21:10:47.442Z,98960.84
2023-07-01T21:13:49.379Z,98963.06
2023-07-01T21:16:51.659Z,98971.97
2023-07-01T21:23:17.469Z,98971.25
2023-07-01T21:26:24.862Z,98977.47
2023-07-01T21:29:27.586Z,98977.81
2023-07-01T21:32:29.530Z,98980.56
2023-07-01T21:35:34.550Z,98979.75
2023-07-01T21:38:36.520Z,98985.94
2023-07-01T21:41:42.652Z,98986.97
2023-07-01T21:44:44.714Z,98991.66
2023-07-01T21:47:46.651Z,98995.09
2023-07-01T21:51:00.235Z,98990.06
2023-07-01T21:54:03.237Z,98994.13
2023-07-01T21:57:05.702Z,98998.69
2023-07-01T22:00:14.926Z,99004.56
2023-07-01T22:03:17.852Z,99003.41
2023-07-01T22:06:20.992Z,99008.44
2023-07-01T22:09:23.153Z,99005.25
2023-07-01T22:12:25.124Z,99005.63
2023-07-01T22:15:27.142Z,98999.91
2023-07-01T22:18:29.222Z,99003.59
2023-07-01T22:21:31.737Z,99002.66
2023-07-01T22:24:34.090Z,99004.94
2023-07-01T22:27:36.151Z,99002.66
2023-07-01T22:30:38.208Z,99005.00
2023-07-01T22:33:40.175Z,99011.72
2023-07-01T22:36:43.625Z,99013.38
2023-07-01T22:39:45.571Z,99015.03
2023-07-01T22:42:47.548Z,99004.53
2023-07-01T22:45:49.879Z,99007.06
2023-07-01T22:48:51.923Z,99004.19
2023-07-01T22:51:53.973Z,99008.06
2023-07-01T22:54:56.002Z,98999.38
2023-07-01T22:57:58.104Z,99003.03
2023-07-01T23:01:00.064Z,99008.91
2023-07-01T23:04:02.380Z,99007.75
2023-07-01T23:07:04.759Z,99014.78
2023-07-01T23:10:08.083Z,99012.31
2023-07-01T23:13:10.135Z,99016.50
2023-07-01T23:16:12.238Z,99013.19
2023-07-01T23:19:14.221Z,99012.84
2023-07-01T23:22:16.283Z,99005.66
2023-07-01T23:25:18.325Z,99010.50
2023-07-01T23:28:20.339Z,99019.34
2023-07-01T23:31:24.894Z,99014.69
2023-07-01T23:34:35.599Z,99022.03
2023-07-01T23:37:48.970Z,99012.22
2023-07-01T23:40:51.299Z,99008.72
2023-07-01T23:43:53.521Z,98995.47
2023-07-01T23:46:55.482Z,99005.53
2023-07-01T23:49:57.498Z,99014.22
2023-07-01T23:52:59.559Z,99024.28
2023-07-01T23:56:01.589Z,99017.56
2023-07-01T23:59:03.593Z,99029.97
